Flugplatz Schleswig-Kropp

Für EDXC sind keine METAR/TAF Berichte vorhanden.
Es werden die Flugwettermeldungen vom Flugplatz Schleswig Airport in 4 km Entfernung angezeigt.

Bericht für ETNS

vom 23.02. um 23:20 UTC

Wind 23 kt aus 280°

Sichtweite 8000 m

Temperatur 6.0°C

Taupunkt 2.0°C

Luftfeuchtigkeit 75%

Luftdruck 1011 hPa

ETNS 232320Z AUTO 28023KT 8000 // ////// 06/02 Q1011 ///
Keine Prognose (TAF) verfügbar.
Impressum